Briefing drone pour Saint-egreve

Rechercher une autre localisation

Conditions de vol :


Nous sommes le : Jeudi 08 décembre 2022
Il est 22:11 UTC (23:11 LT)

Lever de soleil : 06:37 UTC (07:37 LT)
Coucher de soleil : 16:21 UTC (17:21 LT)

Météo

L'essentiel des conditions de vol

VIGILANCE MÉTÉO FRANCE - Isère (38)
Vigilance Jaune : Avalanches
METAR de LFLS
LFLS 082200Z AUTO 08006KT 6000 -RA SCT049/// BKN058/// OVC068/// ///TCU 03/01 Q1004

Date d'émission: 08/12/2022
Heure d'émission: 22:00 UTC
Vent: 080° pour 6 KT (11 km/h)
Visibilité horizontale: 6000 m
Plafond :
- Nuages épars à 4900ft (1494m)
- Nuages morcelés à 5800ft (1768m)
- Couvert à 6800ft (2073m)
Température: 3 °C
Point de rosée: 1 °C
Humidité: 87%
Pression (QNH): 1004 hPa
Conditions: Faible pluie
TAF de LFLS
LFLS 082003Z 0820/0915 CNL

Conditions prévues :

Heure d'émission : Bulletin éffectué le 08 à 20:00 UTC
Prévision : Valide du 08 a 20:00 UTC au 09 a 15:00 UTC
Nuages : à 0ft (0 m)
WEBCAM POUR SAINT-EGREVE

Réglementation

Voler en sécurité

CARTES AERONAUTIQUE 1/500.000
CARTE AZBA (Reseau basse altitude)
CARTES VAC (LFLS)
SUP AIP




Chargement des AIP...
NOTAM (SAINT-EGREVE + Terrain à proximité / FIR )




Chargement des NOTAMS...
CONTACT PREFECTURE 38


Avertissement : Les données mises à disposition sont indicatives. Oxygène Drone ne pourra être tenu responsable de dégâts causés aux biens et aux personnes.